Flight Track Log - Related Links

Times and Time Zones

All times are in EDT time to prevent confusion due to time zone crossing. See the AAL2345 flight status page for this flight to view local times or setup timezone preferences in your user account.

Time Position Orientation Groundspeed Altitude Reporting Facility
EDT Latitude Longitude Course Direction KTS MPH feet Rate Location/Type
Sun 06:51:06 PM 41.9333 -87.9167 207° Southwest 175 201 2,200  Level Chicago TRACON
Sun 06:52:13 PM 41.8833 -87.9667 217° Southwest 239 275 4,600 2,519 Climbing Chicago TRACON
Sun 06:53:17 PM 41.8092 -87.9828 189° South 264 304 7,700 2,905 Climbing Chicago Center
Sun 06:54:00 PM 41.6713 -88.2732 197° South  Level Estimated
Sun 06:54:19 PM 41.7386 -88.0206 202° Southwest 272 313 10,700  Level Chicago Center
Sun 06:55:00 PM 41.5749 -88.2232 159° South  Level FlightAware Approximate
Sun 06:55:21 PM 41.6636 -88.0522 198° South 282 325 13,700  Level Chicago Center
Sun 06:56:00 PM 41.4977 -88.3150 207° Southwest  Level Estimated
Sun 06:56:23 PM 41.5764 -88.0956 200° South 291 335 16,600  Level Chicago Center
Sun 06:57:25 PM 41.4969 -88.1358 201° Southwest 299 344 18,600 1,935 Climbing Chicago Center
Sun 06:58:27 PM 41.4169 -88.1739 200° South 316 364 20,600 1,632 Climbing Chicago Center
Sun 06:59:30 PM 41.3328 -88.2122 199° South 326 375 22,000 1,104 Climbing Chicago Center
Sun 07:00:32 PM 41.2369 -88.2558 199° South 366 421 22,900 678 Climbing Chicago Center
Sun 07:02:27 PM 41.0164 -88.3542 199° South 426 490 24,000 369 Climbing Kansas City Center
Sun 07:03:31 PM 40.9000 -88.4072 199° South 438 504 24,000  Level Kansas City Center
Sun 07:04:32 PM 40.7839 -88.4581 198° South 439 505 24,000  Level Kansas City Center
Sun 07:05:33 PM 40.6669 -88.5100 199° South 441 507 24,000  Level Kansas City Center
Sun 07:06:37 PM 40.5264 -88.5725 199° South 443 510 24,000  Level Kansas City Center
Sun 07:07:37 PM 40.4103 -88.6247 199° South 441 507 24,000  Level Kansas City Center
Sun 07:08:41 PM 40.2986 -88.6842 202° Southwest 438 504 24,000  Level Kansas City Center
Sun 07:09:42 PM 40.2036 -88.7811 218° Southwest 433 498 24,000  Level Kansas City Center
Sun 07:10:46 PM 40.1092 -88.8794 219° Southwest 432 497 24,000  Level Kansas City Center
Sun 07:11:45 PM 40.0147 -88.9767 218° Southwest 431 496 24,000  Level Kansas City Center
Sun 07:12:48 PM 39.9208 -89.0722 218° Southwest 429 494 24,000  Level Kansas City Center
Sun 07:13:50 PM 39.8075 -89.1878 218° Southwest 429 494 24,000  Level Kansas City Center
Sun 07:14:52 PM 39.7122 -89.2842 218° Southwest 432 497 24,000  Level Kansas City Center
Sun 07:15:53 PM 39.6253 -89.3722 218° Southwest 432 497 24,000  Level Kansas City Center
Sun 07:16:55 PM 39.5308 -89.4678 218° Southwest 432 497 24,000  Level Kansas City Center
Sun 07:17:59 PM 39.4181 -89.5817 218° Southwest 429 494 24,000  Level Kansas City Center
Sun 07:19:00 PM 39.3233 -89.6758 218° Southwest 429 494 24,000  Level Kansas City Center
Sun 07:20:01 PM 39.2297 -89.7697 218° Southwest 428 493 24,000  Level Kansas City Center
Sun 07:21:05 PM 39.1272 -89.8731 218° Southwest 428 493 24,000  Level Kansas City Center
Sun 07:22:06 PM 39.0250 -89.9739 217° Southwest 431 496 24,000  Level Kansas City Center
Sun 07:23:07 PM 38.9536 -90.0614 224° Southwest 430 495 24,000  Level Kansas City Center
Sun 07:24:11 PM 38.8578 -90.1928 227° Southwest 419 482 24,000  Level Kansas City Center
Sun 07:25:12 PM 38.7758 -90.3047 227° Southwest 423 487 24,000  Level Kansas City Center
Sun 07:26:15 PM 38.6961 -90.4178 228° Southwest 428 493 24,000  Level Kansas City Center
Sun 07:27:17 PM 38.6125 -90.5269 226° Southwest 427 491 24,000  Level Kansas City Center
Sun 07:28:18 PM 38.5317 -90.6358 227° Southwest 423 487 24,000  Level Kansas City Center
Sun 07:29:22 PM 38.4456 -90.7514 226° Southwest 421 484 24,000  Level Kansas City Center
Sun 07:30:22 PM 38.3639 -90.8614 227° Southwest 427 491 24,000  Level Kansas City Center
Sun 07:31:25 PM 38.2831 -90.9692 226° Southwest 424 488 24,000  Level Kansas City Center
Sun 07:32:26 PM 38.2006 -91.0772 226° Southwest 423 487 24,000  Level Kansas City Center
Sun 07:33:28 PM 38.1042 -91.2028 226° Southwest 425 489 24,000  Level Kansas City Center
Sun 07:34:29 PM 38.0225 -91.3119 226° Southwest 425 489 24,000  Level Kansas City Center
Sun 07:35:31 PM 37.9400 -91.4228 227° Southwest 427 491 24,000  Level Kansas City Center
Sun 07:36:36 PM 37.8578 -91.5317 226° Southwest 425 489 24,000  Level Kansas City Center
Sun 07:37:36 PM 37.7761 -91.6389 226° Southwest 423 487 24,000  Level Kansas City Center
Sun 07:38:37 PM 37.6778 -91.7678 226° Southwest 421 484 24,000  Level Kansas City Center
Sun 07:39:41 PM 37.5944 -91.8758 226° Southwest 423 487 24,000  Level Kansas City Center
Sun 07:40:43 PM 37.5100 -91.9858 226° Southwest 428 493 24,000  Level Kansas City Center
Sun 07:41:44 PM 37.4225 -92.0872 223° Southwest 426 490 24,000  Level Kansas City Center
Sun 07:42:48 PM 37.3322 -92.1869 221° Southwest 427 491 24,000  Level Kansas City Center
Sun 07:43:48 PM 37.2428 -92.2861 221° Southwest 426 490 24,000  Level Kansas City Center
Sun 07:44:52 PM 37.1528 -92.3858 221° Southwest 427 491 24,000  Level Kansas City Center
Sun 07:45:53 PM 37.0636 -92.4850 222° Southwest 426 490 24,000  Level Kansas City Center
Sun 07:46:54 PM 36.9558 -92.6028 221° Southwest 426 490 24,000  Level Kansas City Center
Sun 07:47:58 PM 36.8656 -92.7006 221° Southwest 427 491 24,000  Level Kansas City Center
Sun 07:48:59 PM 36.7764 -92.7986 221° Southwest 426 490 24,000  Level Kansas City Center
Sun 07:50:00 PM 36.6861 -92.8961 221° Southwest 427 491 24,000  Level Kansas City Center
Sun 07:51:04 PM 36.5950 -92.9928 220° Southwest 429 494 24,000  Level Kansas City Center
Sun 07:52:05 PM 36.5081 -93.0858 221° Southwest 428 493 24,000  Level Kansas City Center
Sun 07:53:06 PM 36.4175 -93.1847 221° Southwest 432 497 24,000  Level Kansas City Center
Sun 07:54:10 PM 36.3031 -93.3081 221° Southwest 432 497 24,000  Level Memphis Center
Sun 07:55:10 PM 36.2133 -93.4028 220° Southwest 432 497 24,000  Level Memphis Center
Sun 07:56:10 PM 36.1211 -93.4994 220° Southwest 437 503 24,000  Level Memphis Center
Sun 07:57:10 PM 36.0333 -93.5961 222° Southwest 437 503 24,000  Level Memphis Center
Sun 07:58:10 PM 35.9411 -93.6900 220° Southwest 437 503 24,000  Level Memphis Center
Sun 07:59:10 PM 35.8511 -93.7836 220° Southwest 437 503 24,000  Level Memphis Center
Sun 08:00:10 PM 35.7692 -93.8725 221° Southwest 437 503 24,000  Level Memphis Center
Sun 08:01:10 PM 35.6789 -93.9683 221° Southwest 437 503 24,000  Level Memphis Center
Sun 08:02:10 PM 35.5886 -94.0614 220° Southwest 432 497 24,000  Level Memphis Center
Sun 08:03:10 PM 35.4983 -94.1542 220° Southwest 432 497 24,000  Level Memphis Center
Sun 08:04:10 PM 35.4078 -94.2494 221° Southwest 432 497 24,000  Level Memphis Center
Sun 08:05:42 PM 35.2639 -94.4083 222° Southwest 416 479 24,000  Level Fort Worth Center
Sun 08:06:42 PM 35.1725 -94.5081 222° Southwest 421 484 24,000  Level Fort Worth Center
Sun 08:07:42 PM 35.0828 -94.6050 221° Southwest 433 498 24,000  Level Fort Worth Center
Sun 08:08:42 PM 34.9933 -94.7017 222° Southwest 433 498 24,000  Level Fort Worth Center
Sun 08:09:42 PM 34.9014 -94.8008 222° Southwest 433 498 24,000  Level Fort Worth Center
Sun 08:10:42 PM 34.8219 -94.8867 222° Southwest 433 498 24,000  Level Fort Worth Center
Sun 08:11:42 PM 34.7300 -94.9881 222° Southwest 439 505 24,000  Level Fort Worth Center
Sun 08:12:42 PM 34.6442 -95.0786 221° Southwest 434 499 24,000  Level Fort Worth Center
Sun 08:13:42 PM 34.5628 -95.1919 229° Southwest 434 499 24,000  Level Fort Worth Center
Sun 08:14:43 PM 34.4853 -95.2972 228° Southwest 434 499 24,000  Level Fort Worth Center
Sun 08:15:42 PM 34.3994 -95.4025 225° Southwest 429 494 24,000  Level Fort Worth Center
Sun 08:16:42 PM 34.3194 -95.5075 227° Southwest 429 494 24,000  Level Fort Worth Center
Sun 08:17:42 PM 34.2356 -95.6097 225° Southwest 429 494 24,000 -100 Level Fort Worth Center
Sun 08:18:42 PM 34.1556 -95.7119 227° Southwest 429 494 23,800 -600 Descending Fort Worth Center
Sun 08:19:42 PM 34.0756 -95.8136 226° Southwest 434 499 22,800 -1,200 Descending Fort Worth Center
Sun 08:20:42 PM 33.9997 -95.9153 228° Southwest 416 479 21,400 -1,650 Descending Fort Worth Center
Sun 08:21:42 PM 33.9194 -96.0169 226° Southwest 416 479 19,500 -2,050 Descending Fort Worth Center
Sun 08:22:42 PM 33.8389 -96.1131 225° Southwest 416 479 17,300 -2,650 Descending Fort Worth Center
Sun 08:23:42 PM 33.7564 -96.2142 226° Southwest 399 459 14,200 -2,600 Descending Fort Worth Center
Sun 08:24:42 PM 33.6864 -96.3075 228° Southwest 386 444 12,100 -1,600 Descending Fort Worth Center
Sun 08:25:42 PM 33.6203 -96.3883 226° Southwest 358 412 11,000 -1,050 Descending Fort Worth Center
Sun 08:26:42 PM 33.5625 -96.4561 224° Southwest 323 372 10,000 -900 Descending Fort Worth Center
Sun 08:27:42 PM 33.5108 -96.5242 228° Southwest 294 338 9,200 -500 Descending Fort Worth Center
Sun 08:28:42 PM 33.4589 -96.5867 225° Southwest 275 316 9,000 -300 Descending Fort Worth Center
Sun 08:29:42 PM 33.4031 -96.6469 222° Southwest 275 316 8,600 -950 Descending Fort Worth Center
Sun 08:30:42 PM 33.3511 -96.6997 220° Southwest 275 316 7,100 -1,300 Descending Fort Worth Center
Sun 08:31:42 PM 33.3036 -96.7747 233° Southwest 270 311 6,000 -600 Descending Fort Worth Center
Sun 08:32:42 PM 33.2811 -96.8642 253° West 271 312 5,900 -750 Descending Fort Worth Center
Sun 08:33:42 PM 33.2519 -96.9389 245° Southwest 271 312 4,500 -1,000 Descending Fort Worth Center
Sun 08:34:42 PM 33.1981 -96.9839 215° Southwest 236 272 3,900 -300 Descending Fort Worth Center
Sun 08:35:42 PM 33.1458 -97.0164 208° Southwest 223 257 3,900  Level Fort Worth Center
Sun 08:36:42 PM 33.0958 -97.0292 192° South 210 242 3,900 -154 Level Fort Worth Center
Sun 08:37:00 PM 33.0833 -97.0167 140° Southeast 176 203 3,700 -667 Descending Dallas / Fort Worth TRACON

Login

Don't have an account? Register now (free) for customized features, flight alerts, and more!